Hatton, WA

4:09 PM PDT on August 27, 2014 (GMT -0700)
RAWS OTHELLO WA US | Change Station
CLOSE
Current Station
Personal Weather Station
Location: Othello, WA
Elevation: 854 ft
Nearby Weather Stations

Elev 854 ft 46.88 °N, 119.32 °W | Updated 40 minutes ago

Clear
Clear
96 °F
Feels Like 93 °F
N
6
Wind Variable Wind from SSW
Gusts 14.0 mph

Today
High -- | Low -- °F
--% Chance of Precip.
Yesterday
High -- | Low -- °F
Precip. -- in
6:09 AM 7:45 PM
Waxing Crescent, 5% visible
Pressure 29.90 in
Visibility 10.0 miles
Clouds Clear
Heat Index 93 °F
Dew Point 48 °F
Humidity 20%
Rainfall 0.00 in
Snow Depth Not available.
UV 5 out of 12
Pollen 4.80 out of 12
Air Quality Not available.
Flu Activity Not available.
METAR KMWH 272252Z 17012KT 10SM CLR 34/10 A2992 RMK AO2 SLP123 T03440100 $

More Conditions Fewer Conditions

Pressure 29.90 in
Visibility 10.0 miles
Clouds Clear
Heat Index 93 °F
Dew Point 48 °F
Humidity 20%
Rainfall 0.00 in
Snow Depth Not available.
UV 5 out of 12
Pollen 4.80 out of 12
Air Quality Not available.
Flu Activity Not available.
METAR KMWH 272252Z 17012KT 10SM CLR 34/10 A2992 RMK AO2 SLP123 T03440100 $

More Conditions Fewer Conditions

10-Day Weather Forecast

Almanac

Astronomy

Aug. 27, 2014 Rise Set
Actual Time 6:09 AM PDT 7:45 PM PDT
Civil Twilight 5:38 AM PDT 8:17 PM PDT
Nautical Twilight 4:59 AM PDT 8:55 PM PDT
Astronomical Twilight 4:17 AM PDT 9:37 PM PDT
Moon 8:20 AM PDT 8:28 PM PDT
Length of Visible Light 14h 39m
Length of Day
13h 35m
Tomorrow will be 3m 10s shorter.
Waxing Crescent, 5% of the Moon is Illuminated
Today
Waxing Crescent
Sep 2
First Quarter
Sep 8
Full
Sep 15
Last Quarter
Sep 24
New

Today's Extremes

State Highs State Lows

Community

WunderPhotos

Upload Photos

1,747,814 photos uploaded!

Nearby

Snow Depth

Station Depth Elevation
Trough 0 in 5300 ft
Grouse Camp 0 in 5380 ft
Spruce Springs 0 in 5700 ft
Sasse Ridge 0 in 4200 ft
Moses Mountain 0 in 5300 ft

Earthquake Activity

City Distance Mag. Time & Date
No recent earthquake activity has been reported nearby.
Minimum magnitude displayed is 2.5.

Coastal Water Temperatures

Place Temperature
No Stations Reporting

Nearby Weather Stations